createdAt,value
2018-10-21T00:05:15.287Z,11.50
2018-10-21T00:20:12.608Z,11.50
2018-10-21T00:25:12.130Z,11.50
2018-10-21T00:30:11.540Z,11.50
2018-10-21T00:45:14.171Z,11.50
2018-10-21T00:51:18.935Z,11.30
2018-10-21T00:53:48.946Z,11.20
2018-10-21T03:11:00.245Z,11.30
2018-10-21T03:13:30.562Z,11.40
2018-10-21T03:16:00.556Z,11.30
2018-10-21T03:18:30.918Z,11.50
2018-10-21T03:26:00.892Z,11.70
2018-10-21T03:31:00.839Z,11.70
2018-10-21T03:33:31.174Z,11.70
2018-10-21T03:38:30.469Z,11.80
2018-10-21T03:41:00.443Z,11.80
2018-10-21T04:15:54.791Z,12.00
2018-10-21T04:18:24.746Z,12.10
2018-10-21T04:20:54.758Z,12.10
2018-10-21T04:30:55.040Z,12.10
2018-10-21T04:43:45.387Z,12.20
2018-10-21T04:46:16.804Z,12.20
2018-10-21T05:54:39.985Z,12.10
2018-10-21T06:02:08.993Z,12.10
2018-10-21T06:07:08.404Z,12.00
2018-10-21T06:12:07.957Z,12.00
2018-10-21T06:22:18.792Z,12.10
2018-10-21T06:32:16.929Z,12.20
2018-10-21T06:34:46.903Z,12.30
2018-10-21T06:37:16.929Z,12.30
2018-10-21T06:42:18.693Z,12.30
2018-10-21T06:44:48.635Z,12.40
2018-10-21T06:47:18.602Z,12.40
2018-10-21T06:49:48.561Z,12.40
2018-10-21T06:59:46.939Z,12.30
2018-10-21T07:02:16.923Z,12.30
2018-10-21T07:07:16.407Z,12.40
2018-10-21T07:09:46.423Z,12.70
2018-10-21T07:12:16.384Z,12.60
2018-10-21T07:14:46.490Z,12.60
2018-10-21T07:27:14.192Z,13.00
2018-10-21T07:32:14.014Z,12.90
2018-10-21T07:37:13.431Z,13.10
2018-10-21T07:44:42.357Z,13.10
2018-10-21T07:47:12.324Z,13.10
2018-10-21T07:49:42.387Z,13.30
2018-10-21T07:52:12.442Z,13.20
2018-10-21T07:54:45.927Z,13.20
2018-10-21T07:57:17.440Z,13.10
2018-10-21T08:02:17.946Z,13.30
2018-10-21T08:07:28.598Z,13.50
2018-10-21T08:12:27.990Z,13.40
2018-10-21T08:17:27.465Z,13.30
2018-10-21T08:19:57.431Z,13.20
2018-10-21T08:24:56.865Z,13.30
2018-10-21T08:34:55.489Z,13.50
2018-10-21T08:37:25.603Z,13.70
2018-10-21T08:39:57.837Z,13.70
2018-10-21T08:45:07.042Z,13.70
2018-10-21T09:05:18.627Z,14.10
2018-10-21T12:28:27.215Z,17.40
2018-10-21T12:43:25.541Z,18.20
2018-10-21T12:55:55.306Z,18.50
2018-10-21T13:08:41.628Z,19.10
2018-10-21T13:36:20.848Z,18.40
2018-10-21T13:41:20.823Z,18.30
2018-10-21T13:43:51.828Z,18.30
2018-10-21T13:51:22.398Z,17.60
2018-10-21T13:53:52.412Z,17.40
2018-10-21T14:04:07.051Z,17.10
2018-10-21T14:09:09.290Z,17.50
2018-10-21T14:21:39.896Z,17.20
2018-10-21T14:39:10.733Z,16.70
2018-10-21T14:41:41.098Z,16.70
2018-10-21T14:54:13.001Z,16.60
2018-10-21T15:19:12.428Z,16.40
2018-10-21T15:21:42.475Z,16.30
2018-10-21T15:36:46.294Z,16.30
2018-10-21T15:41:45.782Z,16.20
2018-10-21T15:49:16.842Z,16.00
2018-10-21T15:51:48.399Z,15.90
2018-10-21T16:04:17.443Z,15.70
2018-10-21T16:06:50.966Z,15.60
2018-10-21T16:09:21.020Z,15.70
2018-10-21T16:11:51.846Z,15.60
2018-10-21T16:24:22.078Z,15.20
2018-10-21T16:39:21.826Z,15.00
2018-10-21T16:49:22.113Z,14.90
2018-10-21T16:54:21.685Z,14.70
2018-10-21T17:09:19.152Z,14.50
2018-10-21T17:16:48.075Z,14.30
2018-10-21T17:24:17.161Z,14.20
2018-10-21T17:26:48.854Z,14.10
2018-10-21T17:41:47.044Z,13.90
2018-10-21T17:46:47.191Z,13.80
2018-10-21T17:51:48.116Z,13.70
2018-10-21T17:57:04.078Z,13.60
2018-10-21T17:59:34.135Z,13.60
2018-10-21T18:02:04.238Z,13.40
2018-10-21T18:04:34.232Z,13.40
2018-10-21T18:07:04.626Z,13.30
2018-10-21T18:14:33.757Z,13.20
2018-10-21T18:17:05.292Z,13.10
2018-10-21T18:19:35.282Z,13.10
2018-10-21T18:24:35.395Z,13.00
2018-10-21T18:27:05.436Z,13.00
2018-10-21T18:29:35.496Z,13.00
2018-10-21T18:37:04.531Z,12.90
2018-10-21T18:39:34.537Z,13.00
2018-10-21T18:42:08.745Z,12.90
2018-10-21T18:47:08.215Z,12.80
2018-10-21T18:49:38.265Z,12.80
2018-10-21T18:59:37.622Z,12.60
2018-10-21T19:02:09.816Z,12.60
2018-10-21T19:04:39.834Z,12.50
2018-10-21T19:07:10.658Z,12.60
2018-10-21T19:09:40.626Z,12.60
2018-10-21T19:22:09.079Z,12.60
2018-10-21T19:42:07.745Z,13.20
2018-10-21T19:47:07.343Z,13.30
2018-10-21T19:52:06.907Z,13.30
2018-10-21T20:02:08.014Z,13.60
2018-10-21T20:07:10.951Z,13.60
2018-10-21T20:22:14.709Z,13.70
2018-10-21T20:27:14.297Z,13.70
2018-10-21T20:29:44.304Z,13.70
2018-10-21T20:34:44.298Z,13.70
2018-10-21T20:44:42.752Z,13.50
2018-10-21T20:47:12.788Z,13.50
2018-10-21T20:52:12.448Z,13.60
2018-10-21T20:54:48.344Z,13.60
2018-10-21T20:57:18.362Z,13.60
2018-10-21T20:59:48.530Z,13.60
2018-10-21T21:02:19.558Z,13.60
2018-10-21T21:04:49.604Z,13.60
2018-10-21T21:07:19.642Z,13.50
2018-10-21T21:09:49.696Z,13.50
2018-10-21T21:12:19.788Z,13.40
2018-10-21T21:14:49.699Z,13.40
2018-10-21T21:17:19.772Z,13.30
2018-10-21T21:22:19.317Z,13.20
2018-10-21T21:32:17.686Z,13.30
2018-10-21T21:34:47.712Z,13.40
2018-10-21T21:42:17.653Z,13.30
2018-10-21T21:44:47.614Z,13.30
2018-10-21T21:47:17.635Z,13.30
2018-10-21T21:49:47.751Z,13.30
2018-10-21T21:54:47.202Z,13.30
2018-10-21T21:59:46.685Z,13.30
2018-10-21T22:07:15.641Z,13.10
2018-10-21T22:12:15.163Z,13.10
2018-10-21T22:14:45.164Z,13.10
2018-10-21T22:22:15.814Z,13.00
2018-10-21T22:24:45.747Z,12.90
2018-10-21T22:27:15.782Z,12.90
2018-10-21T22:34:45.008Z,12.90
2018-10-21T22:37:15.006Z,12.90
2018-10-21T22:42:14.511Z,12.90
2018-10-21T22:47:13.946Z,13.00
2018-10-21T22:52:14.577Z,13.00
2018-10-21T22:54:44.536Z,13.10
2018-10-21T22:57:18.708Z,12.90
2018-10-21T22:59:49.859Z,13.00
2018-10-21T23:02:19.879Z,13.00
2018-10-21T23:09:48.773Z,13.10
2018-10-21T23:12:18.855Z,13.10
2018-10-21T23:14:48.776Z,13.20
2018-10-21T23:17:19.604Z,13.30
2018-10-21T23:22:20.141Z,13.30
2018-10-21T23:27:19.497Z,13.30
2018-10-21T23:29:49.515Z,13.30
2018-10-21T23:34:49.037Z,13.30
2018-10-21T23:37:19.020Z,13.40
2018-10-21T23:39:49.078Z,13.40
2018-10-21T23:52:17.653Z,13.40
2018-10-21T23:59:46.926Z,13.30
